This is the latest recevied weather packets stored in our database for station/object N9DMT-13. If no packets are shown the sender has not sent any weather packets the latest 1 day(s).
| Time | Temp. | Humidity | Pressure | Rain* | Wind** | Luminosity | Snow |
|---|---|---|---|---|---|---|---|
| 1778000257 | 12.22° C | 36% | 978.1 hPa | 0 mm | 0 m/s | - | - |
| 1777999956 | 12.78° C | 36% | 978 hPa | 0 mm | 1.34 m/s, 272° | - | - |
| 1777999655 | 12.78° C | 35% | 977.9 hPa | 0 mm | 0.89 m/s, 285° | - | - |
| 1777999354 | 12.22° C | 38% | 978.2 hPa | 0 mm | 0.89 m/s, 340° | - | - |
| 1777999053 | 12.22° C | 33% | 978.1 hPa | 0 mm | 0.45 m/s, 288° | - | - |
| 1777998753 | 11.67° C | 36% | 977.9 hPa | 0 mm | 0 m/s | - | - |
| 1777998451 | 12.22° C | 33% | 978.1 hPa | 0 mm | 2.68 m/s, 28° | - | - |
| 1777998150 | 12.22° C | 34% | 978.1 hPa | 0 mm | 0 m/s | - | - |
| 1777997849 | 11.67° C | 39% | 978.1 hPa | 0 mm | 0.89 m/s, 285° | - | - |
| 1777997549 | 11.67° C | 33% | 978.1 hPa | 0 mm | 0.89 m/s, 15° | - | - |
| 1777997248 | 11.11° C | 33% | 978 hPa | 0 mm | 2.24 m/s, 13° | - | - |
| 1777996947 | 11.11° C | 34% | 977.8 hPa | 0 mm | 4.47 m/s, 334° | - | - |
| 1777996647 | 11.11° C | 34% | 977.8 hPa | 0 mm | 0.89 m/s, 264° | - | - |
| 1777996346 | 11.67° C | 32% | 978.1 hPa | 0 mm | 1.79 m/s, 226° | - | - |
| 1777996045 | 12.22° C | 33% | 978 hPa | 0 mm | 0.45 m/s, 306° | - | - |
| 1777995744 | 11.67° C | 35% | 977.9 hPa | 0 mm | 0 m/s | - | - |
| 1777995443 | 11.67° C | 33% | 978 hPa | 0 mm | 1.34 m/s, 264° | - | - |
| 1777995143 | 11.67° C | 35% | 977.9 hPa | 0 mm | 1.34 m/s, 263° | - | - |
| 1777994842 | 11.11° C | 36% | 977.6 hPa | 0 mm | 0 m/s | - | - |
| 1777994541 | 11.11° C | 36% | 977.8 hPa | 0 mm | 0 m/s | - | - |
| 1777994240 | 11.67° C | 36% | 977.7 hPa | 0 mm | 2.68 m/s, 329° | - | - |
| 1777993939 | 11.67° C | 37% | 977.7 hPa | 0 mm | 0 m/s | - | - |
| 1777993639 | 11.67° C | 37% | 977.7 hPa | 0 mm | 0.89 m/s, 176° | - | - |
| 1777993338 | 12.22° C | 36% | 977.7 hPa | 0 mm | 0.45 m/s, 216° | - | - |
| 1777993046 | 11.67° C | 37% | 977.7 hPa | 0 mm | 0.89 m/s, 77° | - | - |
* Rain latest hour (hover to see other rain measurements)
** Current wind speed in m/s (hover to see current wind gust speed)